| time (UTC) | temp F | wind direction | speed knots | gust knots | rain 1hr in | rain 24hr in | rain mn in | humidity % | barometer mb |
| 20260507161803 | 58 | 301 | 6.1 | 18.2 | 0.00 | 0.24 | 0.02 | 41 | 1008.5 |
| 20260507160903 | 57 | 286 | 8.7 | 18.2 | 0.00 | 0.24 | 0.02 | 45 | 1008.7 |
| 20260507160004 | 57 | 287 | 9.6 | 20.0 | 0.00 | 0.24 | 0.02 | 44 | 1008.7 |
| 20260507155403 | 57 | 280 | 7.8 | 16.5 | 0.00 | 0.24 | 0.02 | 46 | 1008.7 |
| 20260507154503 | 57 | 289 | 7.0 | 14.8 | 0.00 | 0.24 | 0.02 | 46 | 1008.7 |
| 20260507153604 | 56 | 267 | 7.0 | 18.2 | 0.00 | 0.24 | 0.02 | 52 | 1008.9 |
| 20260507152704 | 57 | 270 | 5.2 | 11.3 | 0.00 | 0.24 | 0.02 | 57 | 1008.9 |
| 20260507151803 | 57 | 288 | 5.2 | 13.0 | 0.00 | 0.24 | 0.02 | 57 | 1009.0 |
| 20260507150903 | 56 | 266 | 6.1 | 15.6 | 0.00 | 0.24 | 0.02 | 61 | 1009.0 |
| 20260507150005 | 56 | 276 | 5.2 | 13.0 | 0.00 | 0.24 | 0.02 | 60 | 1009.1 |
| 20260507145424 | 55 | 291 | 6.1 | 12.2 | 0.00 | 0.24 | 0.02 | 61 | 1009.3 |
| 20260507144503 | 56 | 275 | 6.1 | 13.0 | 0.00 | 0.24 | 0.02 | 62 | 1009.3 |
| 20260507143625 | 55 | 282 | 4.3 | 10.4 | 0.00 | 0.24 | 0.02 | 63 | 1009.3 |
| 20260507142724 | 55 | 284 | 5.2 | 11.3 | 0.00 | 0.24 | 0.02 | 61 | 1009.3 |
| 20260507141803 | 56 | 280 | 5.2 | 12.2 | 0.00 | 0.24 | 0.02 | 59 | 1009.2 |
| 20260507140903 | 56 | 293 | 4.3 | 10.4 | 0.00 | 0.24 | 0.02 | 58 | 1009.1 |
| 20260507140024 | 55 | 291 | 5.2 | 12.2 | 0.00 | 0.24 | 0.02 | 59 | 1009.2 |
| 20260507135405 | 55 | 310 | 4.3 | 10.4 | 0.00 | 0.24 | 0.02 | 62 | 1009.2 |
| 20260507134504 | 54 | 299 | 6.1 | 11.3 | 0.00 | 0.24 | 0.02 | 62 | 1009.1 |
| 20260507133604 | 55 | 296 | 4.3 | 9.6 | 0.00 | 0.24 | 0.02 | 62 | 1009.1 |
| 20260507132703 | 54 | 312 | 3.5 | 7.0 | 0.00 | 0.24 | 0.02 | 63 | 1009.3 |
| 20260507131803 | 54 | 302 | 3.5 | 8.7 | 0.00 | 0.24 | 0.02 | 64 | 1009.4 |
| 20260507130903 | 54 | 306 | 3.5 | 7.8 | 0.00 | 0.24 | 0.02 | 65 | 1009.6 |
| 20260507130004 | 53 | 315 | 3.5 | 7.0 | 0.00 | 0.24 | 0.02 | 68 | 1009.5 |
| 20260507125425 | 53 | 314 | 3.5 | 7.0 | 0.00 | 0.24 | 0.02 | 68 | 1009.6 |
| 20260507124505 | 53 | 329 | 1.7 | 7.0 | 0.00 | 0.24 | 0.02 | 70 | 1009.5 |
| 20260507123603 | 52 | 312 | 3.5 | 8.7 | 0.00 | 0.24 | 0.02 | 73 | 1009.6 |
| 20260507122705 | 51 | 297 | 5.2 | 11.3 | 0.00 | 0.24 | 0.02 | 75 | 1009.7 |
| 20260507121804 | 51 | 289 | 4.3 | 9.6 | 0.00 | 0.24 | 0.02 | 76 | 1009.8 |
| 20260507120903 | 50 | 317 | 2.6 | 6.1 | 0.00 | 0.24 | 0.02 | 82 | 1009.8 |
| 20260507120004 | 49 | 315 | 1.7 | 4.3 | 0.00 | 0.24 | 0.02 | 84 | 1009.6 |
| 20260507115403 | 48 | 307 | 1.7 | 6.1 | 0.00 | 0.24 | 0.02 | 85 | 1009.7 |
| 20260507114503 | 48 | 297 | 2.6 | 6.1 | 0.00 | 0.24 | 0.02 | 85 | 1009.6 |
| 20260507113603 | 48 | 314 | 2.6 | 7.8 | 0.00 | 0.24 | 0.02 | 85 | 1009.6 |
| 20260507112704 | 48 | 314 | 2.6 | 7.8 | 0.00 | 0.24 | 0.02 | 85 | 1009.4 |
| 20260507111803 | 48 | 312 | 3.5 | 7.0 | 0.00 | 0.24 | 0.02 | 86 | 1009.4 |
| 20260507110903 | 48 | 319 | 2.6 | 6.1 | 0.00 | 0.24 | 0.02 | 86 | 1009.5 |
| 20260507110003 | 47 | 313 | 2.6 | 6.1 | 0.00 | 0.24 | 0.02 | 86 | 1009.5 |
| 20260507105404 | 47 | 303 | 3.5 | 7.8 | 0.00 | 0.24 | 0.02 | 86 | 1009.4 |
| 20260507104504 | 47 | 313 | 4.3 | 7.8 | 0.00 | 0.24 | 0.02 | 86 | 1009.1 |
| 20260507103624 | 47 | 329 | 3.5 | 7.0 | 0.00 | 0.24 | 0.02 | 86 | 1009.0 |
| 20260507102703 | 47 | 320 | 3.5 | 9.6 | 0.00 | 0.24 | 0.02 | 87 | 1009.0 |
| 20260507101804 | 47 | 318 | 3.5 | 7.8 | 0.00 | 0.24 | 0.02 | 88 | 1008.9 |
| 20260507100924 | 47 | 317 | 2.6 | 6.1 | 0.00 | 0.24 | 0.02 | 89 | 1009.1 |
| 20260507100004 | 47 | 317 | 3.5 | 9.6 | 0.00 | 0.24 | 0.02 | 89 | 1008.8 |
| 20260507095403 | 47 | 307 | 4.3 | 9.6 | 0.00 | 0.24 | 0.02 | 89 | 1008.8 |
| 20260507094524 | 47 | 301 | 3.5 | 7.0 | 0.00 | 0.24 | 0.02 | 90 | 1009.2 |
| 20260507093604 | 47 | 293 | 3.5 | 7.0 | 0.00 | 0.24 | 0.02 | 91 | 1009.1 |
| 20260507092703 | 48 | 285 | 1.7 | 6.1 | 0.00 | 0.24 | 0.02 | 91 | 1009.0 |
| 20260507091803 | 48 | 290 | 3.5 | 7.8 | 0.00 | 0.24 | 0.02 | 92 | 1009.0 |
| 20260507090904 | 48 | 288 | 4.3 | 9.6 | 0.00 | 0.24 | 0.02 | 92 | 1009.1 |
| 20260507090004 | 48 | 288 | 3.5 | 9.6 | 0.00 | 0.24 | 0.02 | 92 | 1009.2 |
| 20260507085403 | 48 | 296 | 3.5 | 7.8 | 0.01 | 0.24 | 0.02 | 92 | 1008.8 |
| 20260507084504 | 48 | 271 | 2.6 | 7.0 | 0.01 | 0.24 | 0.02 | 92 | 1009.2 |
| 20260507083625 | 48 | 277 | 2.6 | 5.2 | 0.01 | 0.24 | 0.02 | 91 | 1008.8 |
| 20260507082703 | 48 | 280 | 1.7 | 4.3 | 0.01 | 0.24 | 0.02 | 91 | 1008.6 |
| 20260507081803 | 49 | 302 | 1.7 | 5.2 | 0.01 | 0.24 | 0.02 | 90 | 1008.7 |
| 20260507080903 | 49 | 304 | 2.6 | 7.0 | 0.01 | 0.24 | 0.02 | 88 | 1008.7 |
| 20260507080004 | 49 | 310 | 3.5 | 9.6 | 0.01 | 0.24 | 0.02 | 87 | 1008.4 |
| 20260507075404 | 50 | 313 | 3.5 | 9.6 | 0.00 | 0.23 | 0.01 | 86 | 1008.6 |
| 20260507074505 | 50 | 296 | 4.3 | 10.4 | 0.00 | 0.23 | 0.01 | 86 | 1008.8 |
| 20260507073603 | 50 | 302 | 5.2 | 11.3 | 0.00 | 0.23 | 0.01 | 86 | 1008.6 |
| 20260507072724 | 50 | 306 | 5.2 | 12.2 | 0.00 | 0.23 | 0.01 | 85 | 1008.4 |
| 20260507071803 | 50 | 308 | 6.1 | 12.2 | 0.00 | 0.23 | 0.01 | 86 | 1008.3 |
| 20260507070903 | 50 | 306 | 6.1 | 12.2 | 0.00 | 0.23 | 0.01 | 86 | 1008.1 |
| 20260507070006 | 50 | 301 | 5.2 | 9.6 | 0.00 | 0.23 | 0.01 | 88 | 1008.4 |
| 20260507065404 | 50 | 301 | 5.2 | 10.4 | 0.00 | 0.23 | 0.01 | 88 | 1008.3 |
| 20260507064504 | 50 | 293 | 3.5 | 7.8 | 0.00 | 0.23 | 0.01 | 88 | 1008.0 |
| 20260507063604 | 50 | 292 | 3.5 | 8.7 | 0.00 | 0.23 | 0.01 | 88 | 1008.1 |
| 20260507062703 | 51 | 289 | 3.5 | 8.7 | 0.00 | 0.23 | 0.01 | 88 | 1007.9 |
| 20260507061803 | 51 | 289 | 4.3 | 10.4 | 0.00 | 0.23 | 0.01 | 88 | 1007.8 |
| 20260507060903 | 51 | 291 | 5.2 | 10.4 | 0.00 | 0.23 | 0.01 | 88 | 1008.0 |
| 20260507060024 | 51 | 293 | 3.5 | 11.3 | 0.00 | 0.23 | 0.01 | 89 | 1008.1 |
| 20260507055403 | 51 | 286 | 4.3 | 11.3 | 0.00 | 0.23 | 0.01 | 89 | 1008.2 |
| 20260507054503 | 51 | 282 | 2.6 | 9.6 | 0.00 | 0.23 | 0.01 | 90 | 1008.4 |
| 20260507053603 | 51 | 293 | 3.5 | 6.1 | 0.00 | 0.23 | 0.01 | 88 | 1008.5 |
| 20260507052704 | 51 | 304 | 3.5 | 7.8 | 0.00 | 0.23 | 0.01 | 87 | 1008.7 |
| 20260507051803 | 51 | 304 | 3.5 | 8.7 | 0.00 | 0.23 | 0.01 | 87 | 1008.4 |
| 20260507050903 | 51 | 301 | 5.2 | 10.4 | 0.00 | 0.23 | 0.01 | 89 | 1008.6 |
| 20260507050004 | 52 | 307 | 4.3 | 10.4 | 0.01 | 0.23 | 0.01 | 89 | 1008.3 |
| 20260507045403 | 52 | 314 | 4.3 | 9.6 | 0.01 | 0.23 | 0.01 | 90 | 1008.2 |
| 20260507044504 | 52 | 308 | 5.2 | 13.9 | 0.01 | 0.23 | 0.01 | 90 | 1008.1 |
| 20260507043624 | 52 | 312 | 5.2 | 12.2 | 0.01 | 0.23 | 0.01 | 91 | 1008.3 |
| 20260507042703 | 53 | 310 | 6.1 | 12.2 | 0.01 | 0.23 | 0.01 | 92 | 1008.2 |
| 20260507041803 | 53 | 309 | 5.2 | 12.2 | 0.01 | 0.23 | 0.01 | 93 | 1008.4 |
| 20260507040903 | 54 | 304 | 5.2 | 13.0 | 0.01 | 0.23 | 0.01 | 93 | 1008.5 |
| 20260507040004 | 54 | 307 | 6.1 | 12.2 | 0.00 | 0.22 | 0.00 | 93 | 1008.3 |
| 20260507035403 | 55 | 309 | 5.2 | 13.0 | 0.00 | 0.22 | 0.22 | 93 | 1008.2 |
| 20260507034503 | 56 | 309 | 5.2 | 12.2 | 0.00 | 0.22 | 0.22 | 93 | 1008.0 |
| 20260507033603 | 56 | 300 | 5.2 | 13.0 | 0.00 | 0.22 | 0.22 | 94 | 1007.7 |
| 20260507032724 | 57 | 291 | 5.2 | 11.3 | 0.00 | 0.22 | 0.22 | 95 | 1007.7 |
| 20260507031803 | 58 | 305 | 4.3 | 13.9 | 0.00 | 0.22 | 0.22 | 95 | 1007.5 |
| 20260507030903 | 58 | 290 | 6.1 | 13.9 | 0.00 | 0.22 | 0.22 | 96 | 1007.4 |
| 20260507030004 | 58 | 278 | 7.0 | 13.9 | 0.00 | 0.22 | 0.22 | 96 | 1007.5 |
| 20260507025424 | 59 | 270 | 6.1 | 13.9 | 0.00 | 0.22 | 0.22 | 96 | 1007.5 |
| 20260507024503 | 59 | 258 | 6.1 | 15.6 | 0.00 | 0.22 | 0.22 | 96 | 1007.2 |
| 20260507023603 | 59 | 238 | 7.8 | 15.6 | 0.00 | 0.22 | 0.22 | 96 | 1007.3 |
| 20260507022703 | 59 | 221 | 6.1 | 11.3 | 0.00 | 0.22 | 0.22 | 96 | 1007.2 |
| 20260507021803 | 59 | 220 | 4.3 | 11.3 | 0.00 | 0.22 | 0.22 | 96 | 1006.9 |
| 20260507020903 | 59 | 220 | 5.2 | 13.0 | 0.00 | 0.22 | 0.22 | 96 | 1006.8 |
| 20260507020003 | 59 | 212 | 6.1 | 14.8 | 0.00 | 0.22 | 0.22 | 96 | 1006.9 |
| 20260507015403 | 59 | 211 | 5.2 | 14.8 | 0.01 | 0.22 | 0.22 | 96 | 1006.9 |
| 20260507014524 | 59 | 205 | 5.2 | 13.0 | 0.01 | 0.22 | 0.22 | 96 | 1007.0 |
| 20260507013624 | 59 | 202 | 6.1 | 12.2 | 0.01 | 0.22 | 0.22 | 96 | 1007.0 |
| 20260507012724 | 59 | 205 | 6.1 | 11.3 | 0.01 | 0.22 | 0.22 | 96 | 1007.0 |
| 20260507011803 | 59 | 204 | 5.2 | 13.0 | 0.01 | 0.22 | 0.22 | 96 | 1007.1 |
| 20260507010904 | 59 | 205 | 6.1 | 14.8 | 0.01 | 0.22 | 0.22 | 96 | 1007.0 |
| 20260507010004 | 59 | 199 | 4.3 | 13.0 | 0.01 | 0.22 | 0.22 | 96 | 1007.1 |
| 20260507005424 | 59 | 199 | 5.2 | 13.0 | 0.00 | 0.21 | 0.21 | 96 | 1007.1 |
| 20260507004504 | 59 | 200 | 5.2 | 12.2 | 0.00 | 0.21 | 0.21 | 96 | 1007.1 |
| 20260507003604 | 59 | 197 | 5.2 | 12.2 | 0.00 | 0.21 | 0.21 | 96 | 1007.0 |
| 20260507002703 | 59 | 202 | 5.2 | 12.2 | 0.00 | 0.21 | 0.21 | 96 | 1006.8 |
| 20260507001803 | 59 | 200 | 4.3 | 12.2 | 0.01 | 0.21 | 0.21 | 96 | 1006.9 |
| 20260507000903 | 59 | 200 | 5.2 | 14.8 | 0.03 | 0.21 | 0.21 | 96 | 1006.9 |
| 20260507000024 | 59 | 194 | 5.2 | 14.8 | 0.05 | 0.21 | 0.21 | 96 | 1006.7 |
| 20260506235403 | 59 | 199 | 5.2 | 14.8 | 0.05 | 0.21 | 0.21 | 96 | 1006.8 |
| 20260506234503 | 59 | 198 | 5.2 | 14.8 | 0.07 | 0.21 | 0.21 | 96 | 1006.6 |
| 20260506233604 | 59 | 198 | 4.3 | 11.3 | 0.09 | 0.21 | 0.21 | 96 | 1006.6 |
| 20260506232704 | 59 | 192 | 4.3 | 13.0 | 0.09 | 0.21 | 0.21 | 96 | 1006.6 |
| 20260506231804 | 59 | 190 | 4.3 | 14.8 | 0.08 | 0.20 | 0.20 | 96 | 1006.6 |
| 20260506230924 | 59 | 194 | 5.2 | 14.8 | 0.06 | 0.18 | 0.19 | 95 | 1006.7 |
| 20260506230003 | 59 | 192 | 4.3 | 12.2 | 0.05 | 0.16 | 0.16 | 95 | 1006.9 |
| 20260506225403 | 59 | 198 | 4.3 | 13.9 | 0.05 | 0.16 | 0.16 | 95 | 1007.0 |
| 20260506224503 | 59 | 197 | 4.3 | 12.2 | 0.04 | 0.14 | 0.14 | 95 | 1007.0 |
| 20260506223604 | 59 | 195 | 4.3 | 13.0 | 0.02 | 0.12 | 0.13 | 95 | 1007.0 |
| 20260506222705 | 59 | 192 | 4.3 | 12.2 | 0.03 | 0.12 | 0.12 | 95 | 1007.0 |
| 20260506221803 | 59 | 192 | 6.1 | 17.4 | 0.03 | 0.12 | 0.12 | 95 | 1007.1 |
| 20260506220924 | 59 | 192 | 5.2 | 17.4 | 0.03 | 0.12 | 0.12 | 95 | 1007.1 |
| 20260506220003 | 59 | 185 | 5.2 | 14.8 | 0.03 | 0.11 | 0.11 | 94 | 1007.1 |
| 20260506215424 | 59 | 191 | 5.2 | 18.2 | 0.04 | 0.11 | 0.11 | 94 | 1007.2 |
| 20260506214504 | 59 | 187 | 5.2 | 15.6 | 0.04 | 0.10 | 0.10 | 94 | 1007.1 |
| 20260506213604 | 59 | 181 | 5.2 | 14.8 | 0.05 | 0.10 | 0.10 | 94 | 1007.1 |
| 20260506212703 | 59 | 186 | 5.2 | 18.2 | 0.05 | 0.09 | 0.09 | 94 | 1007.2 |
| 20260506211803 | 59 | 187 | 6.1 | 15.6 | 0.06 | 0.09 | 0.09 | 94 | 1007.3 |
| 20260506210924 | 60 | 184 | 6.1 | 21.7 | 0.07 | 0.09 | 0.09 | 93 | 1007.5 |
| 20260506210004 | 60 | 183 | 6.1 | 18.2 | 0.06 | 0.08 | 0.08 | 93 | 1007.5 |
| 20260506205403 | 60 | 183 | 5.2 | 15.6 | 0.05 | 0.07 | 0.07 | 93 | 1007.6 |
| 20260506204504 | 60 | 189 | 6.1 | 15.6 | 0.04 | 0.06 | 0.06 | 92 | 1007.9 |
| 20260506203604 | 61 | 189 | 4.3 | 13.9 | 0.03 | 0.05 | 0.05 | 92 | 1007.7 |
| 20260506202703 | 61 | 200 | 4.3 | 13.9 | 0.02 | 0.04 | 0.04 | 91 | 1007.7 |
| 20260506201803 | 62 | 197 | 5.2 | 15.6 | 0.01 | 0.03 | 0.03 | 90 | 1007.9 |
| 20260506200903 | 62 | 194 | 5.2 | 13.9 | 0.01 | 0.02 | 0.02 | 90 | 1007.8 |
| 20260506200003 | 62 | 201 | 5.2 | 13.0 | 0.01 | 0.02 | 0.02 | 89 | 1007.8 |
| 20260506195424 | 62 | 205 | 4.3 | 12.2 | 0.02 | 0.02 | 0.02 | 89 | 1007.8 |
| 20260506194503 | 62 | 205 | 5.2 | 15.6 | 0.02 | 0.02 | 0.02 | 89 | 1007.9 |
| 20260506193603 | 62 | 198 | 6.1 | 17.4 | 0.02 | 0.02 | 0.02 | 88 | 1007.8 |
| 20260506192703 | 63 | 201 | 4.3 | 13.0 | 0.02 | 0.02 | 0.02 | 90 | 1007.9 |
| 20260506191803 | 63 | 197 | 2.6 | 6.1 | 0.02 | 0.02 | 0.02 | 89 | 1007.8 |
| 20260506190903 | 63 | 216 | 4.3 | 7.8 | 0.01 | 0.01 | 0.01 | 88 | 1007.7 |
| 20260506190003 | 63 | 225 | 4.3 | 10.4 | 0.01 | 0.01 | 0.01 | 87 | 1007.9 |
| 20260506185403 | 64 | 237 | 5.2 | 9.6 | 0.00 | 0.00 | 0.00 | 85 | 1008.1 |
| 20260506184503 | 64 | 250 | 5.2 | 8.7 | 0.00 | 0.00 | 0.00 | 83 | 1008.1 |
| 20260506183624 | 65 | 252 | 6.1 | 13.9 | 0.00 | 0.00 | 0.00 | 78 | 1008.3 |
| 20260506182724 | 68 | 241 | 7.8 | 20.0 | 0.00 | 0.00 | 0.00 | 72 | 1008.3 |
| 20260506181803 | 69 | 222 | 7.8 | 19.1 | 0.00 | 0.00 | 0.00 | 66 | 1008.3 |
| 20260506180904 | 70 | 217 | 10.4 | 21.7 | 0.00 | 0.00 | 0.00 | 63 | 1008.3 |
| 20260506180004 | 70 | 211 | 9.6 | 22.6 | 0.00 | 0.00 | 0.00 | 62 | 1008.2 |
| 20260506175403 | 70 | 211 | 7.0 | 18.2 | 0.00 | 0.00 | 0.00 | 61 | 1008.3 |
| 20260506174503 | 71 | 206 | 6.1 | 16.5 | 0.00 | 0.00 | 0.00 | 59 | 1008.2 |
| 20260506173603 | 71 | 199 | 6.1 | 19.1 | 0.00 | 0.00 | 0.00 | 59 | 1008.2 |
| 20260506172703 | 71 | 199 | 6.1 | 20.9 | 0.00 | 0.00 | 0.00 | 58 | 1008.1 |
| 20260506171804 | 71 | 196 | 7.8 | 25.2 | 0.00 | 0.00 | 0.00 | 59 | 1008.1 |
| 20260506170924 | 71 | 193 | 7.8 | 22.6 | 0.00 | 0.00 | 0.00 | 59 | 1008.4 |
| 20260506170024 | 71 | 200 | 9.6 | 23.5 | 0.00 | 0.00 | 0.00 | 60 | 1008.5 |
| 20260506165403 | 71 | 193 | 7.0 | 19.1 | 0.00 | 0.00 | 0.00 | 59 | 1008.7 |
| 20260506164503 | 71 | 197 | 5.2 | 15.6 | 0.00 | 0.00 | 0.00 | 61 | 1008.7 |
| 20260506163603 | 70 | 206 | 7.8 | 20.9 | 0.00 | 0.00 | 0.00 | 62 | 1008.9 |
| 20260506162703 | 70 | 198 | 7.0 | 16.5 | 0.00 | 0.00 | 0.00 | 63 | 1009.0 |